Time;durP1;ratioP1;P1;durP2;ratioP2;P2;SDS_P1;SDS_P2;PMS_P1;PMS_P2;Temp;Humidity;BMP_temperature;BMP_pressure;BME280_temperature;BME280_humidity;BME280_pressure;Samples;Min_cycle;Max_cycle;Signal;HPM_P1;HPM_P2
2022/03/18 00:02:15;;;;;;;4.05;2.15;;;;;;;;;;5016184;28;20034;-73
2022/03/18 00:04:42;;;;;;;5.03;2.72;;;;;;;;;;5021616;28;20116;-73
2022/03/18 00:07:08;;;;;;;3.38;2.13;;;;;;;;;;5032780;28;20032;-73
2022/03/18 00:09:34;;;;;;;3.92;2.58;;;;;;;;;;5028530;28;20472;-73
2022/03/18 00:12:01;;;;;;;3.10;2.33;;;;;;;;;;5021251;28;20423;-73
2022/03/18 00:14:27;;;;;;;4.47;2.17;;;;;;;;;;5031653;28;20031;-73
2022/03/18 00:16:53;;;;;;;4.43;2.53;;;;;;;;;;5027857;28;20065;-73
2022/03/18 00:19:20;;;;;;;4.05;2.25;;;;;;;;;;5035422;28;20036;-73
2022/03/18 00:21:46;;;;;;;3.65;2.08;;;;;;;;;;5030739;28;20026;-73
2022/03/18 00:24:12;;;;;;;4.10;2.90;;;;;;;;;;5035555;28;20104;-73
2022/03/18 00:26:39;;;;;;;3.17;2.13;;;;;;;;;;5031305;28;20041;-73
2022/03/18 00:29:05;;;;;;;3.25;2.45;;;;;;;;;;5026756;28;20113;-73
2022/03/18 00:31:31;;;;;;;2.42;1.55;;;;;;;;;;5016562;28;20370;-73
2022/03/18 00:33:57;;;;;;;2.30;1.65;;;;;;;;;;5037601;28;20025;-73
2022/03/18 00:36:24;;;;;;;2.30;1.20;;;;;;;;;;5047585;28;20427;-72
2022/03/18 00:38:50;;;;;;;3.10;1.70;;;;;;;;;;5038182;28;20077;-73
2022/03/18 00:41:18;;;;;;;3.05;1.60;;;;;;;;;;5031984;28;20075;-73
2022/03/18 00:43:45;;;;;;;3.35;2.00;;;;;;;;;;5026882;28;20026;-73
2022/03/18 00:46:12;;;;;;;3.75;2.83;;;;;;;;;;5027353;28;20381;-73
2022/03/18 00:54:07;;;;;;;3.63;2.85;;;;;;;;;;5034333;28;20400;-73
2022/03/18 00:56:34;;;;;;;4.07;3.08;;;;;;;;;;5034074;28;20033;-73
2022/03/18 00:59:00;;;;;;;4.45;3.63;;;;;;;;;;5033787;28;20037;-73
2022/03/18 01:01:27;;;;;;;5.20;2.95;;;;;;;;;;5031449;28;20044;-73
2022/03/18 01:03:53;;;;;;;4.00;3.20;;;;;;;;;;5030480;28;20415;-74
2022/03/18 01:06:19;;;;;;;5.53;2.85;;;;;;;;;;5033626;28;20045;-73
2022/03/18 01:08:45;;;;;;;4.00;3.10;;;;;;;;;;5031623;28;20033;-73
2022/03/18 01:11:12;;;;;;;5.68;3.58;;;;;;;;;;5030393;28;20030;-74
2022/03/18 01:13:38;;;;;;;5.72;4.13;;;;;;;;;;5028594;28;20036;-74
2022/03/18 01:16:04;;;;;;;5.72;4.80;;;;;;;;;;5034323;28;20025;-74
2022/03/18 01:18:31;;;;;;;6.72;4.38;;;;;;;;;;5032139;28;20035;-74
2022/03/18 01:20:57;;;;;;;9.27;5.57;;;;;;;;;;5031008;28;20478;-75
2022/03/18 01:23:23;;;;;;;7.13;5.72;;;;;;;;;;5033608;28;20029;-77
2022/03/18 01:25:50;;;;;;;9.20;6.82;;;;;;;;;;5029917;28;20064;-75
2022/03/18 01:28:16;;;;;;;9.80;7.25;;;;;;;;;;5031609;28;20033;-75
2022/03/18 01:30:42;;;;;;;7.95;6.45;;;;;;;;;;5031852;28;20033;-76
2022/03/18 01:33:09;;;;;;;11.55;7.18;;;;;;;;;;5029693;28;20049;-77
2022/03/18 01:35:37;;;;;;;12.60;8.20;;;;;;;;;;5029241;28;20373;-77
2022/03/18 01:38:03;;;;;;;10.70;8.20;;;;;;;;;;5028167;28;20032;-77
2022/03/18 01:40:31;;;;;;;12.65;9.35;;;;;;;;;;5028587;28;20038;-77
2022/03/18 01:42:57;;;;;;;17.08;10.30;;;;;;;;;;5025098;28;20036;-77
2022/03/18 01:45:24;;;;;;;16.23;10.07;;;;;;;;;;5027665;28;20116;-77
2022/03/18 01:47:50;;;;;;;12.07;9.13;;;;;;;;;;5028439;28;20033;-77
2022/03/18 01:50:17;;;;;;;12.65;9.55;;;;;;;;;;5027623;28;20037;-78
2022/03/18 01:52:44;;;;;;;20.50;12.90;;;;;;;;;;5032577;28;20064;-78
2022/03/18 01:55:11;;;;;;;23.30;13.20;;;;;;;;;;5024322;28;20076;-78
2022/03/18 01:57:37;;;;;;;20.63;10.90;;;;;;;;;;5029392;28;20064;-78
2022/03/18 02:00:05;;;;;;;21.10;12.25;;;;;;;;;;5028095;28;20026;-78
2022/03/18 02:02:31;;;;;;;21.55;12.75;;;;;;;;;;5028081;28;20037;-79
2022/03/18 02:04:58;;;;;;;19.95;12.70;;;;;;;;;;5025185;28;20041;-78
2022/03/18 02:07:24;;;;;;;20.92;13.10;;;;;;;;;;5026397;28;20407;-78
2022/03/18 02:09:50;;;;;;;21.63;14.75;;;;;;;;;;5030557;28;20022;-79
2022/03/18 02:12:17;;;;;;;31.98;19.15;;;;;;;;;;5033317;28;20033;-79
2022/03/18 02:14:44;;;;;;;35.42;24.27;;;;;;;;;;5027131;28;20021;-80
2022/03/18 02:17:12;;;;;;;52.95;27.30;;;;;;;;;;5023877;28;20034;-80
2022/03/18 02:19:39;;;;;;;48.50;30.38;;;;;;;;;;5026363;28;20044;-81
2022/03/18 02:22:32;;;;;;;51.45;32.72;;;;;;;;;;5036420;28;20085;-78
2022/03/18 02:24:58;;;;;;;51.15;35.47;;;;;;;;;;5023346;28;20048;-79
2022/03/18 02:27:24;;;;;;;56.55;38.67;;;;;;;;;;5025435;28;20099;-79
2022/03/18 02:29:51;;;;;;;62.90;42.30;;;;;;;;;;5022949;28;20111;-78
2022/03/18 02:32:18;;;;;;;67.60;45.50;;;;;;;;;;5024151;28;20041;-79
2022/03/18 02:34:44;;;;;;;83.68;49.47;;;;;;;;;;5024796;28;20056;-78
2022/03/18 02:37:11;;;;;;;53.35;38.90;;;;;;;;;;5026940;28;20332;-78
2022/03/18 02:39:38;;;;;;;70.00;42.75;;;;;;;;;;5028677;28;20033;-79
2022/03/18 02:42:04;;;;;;;72.35;42.92;;;;;;;;;;5023639;28;20039;-77
2022/03/18 02:44:31;;;;;;;69.35;42.13;;;;;;;;;;5020374;28;20414;-78
2022/03/18 02:47:00;;;;;;;61.85;36.88;;;;;;;;;;5025476;28;20041;-77
2022/03/18 02:49:27;;;;;;;77.50;41.75;;;;;;;;;;5025332;28;20364;-78
2022/03/18 02:51:53;;;;;;;48.50;31.40;;;;;;;;;;5023706;28;20151;-77
2022/03/18 02:54:20;;;;;;;63.65;35.85;;;;;;;;;;5023078;28;20030;-78
2022/03/18 02:56:47;;;;;;;63.78;34.50;;;;;;;;;;5022317;28;20021;-78
2022/03/18 02:59:13;;;;;;;61.47;34.05;;;;;;;;;;5021991;28;20107;-77
2022/03/18 03:01:40;;;;;;;48.80;31.13;;;;;;;;;;5022270;28;20025;-77
2022/03/18 03:04:07;;;;;;;46.47;29.98;;;;;;;;;;5008750;28;20053;-76
2022/03/18 03:09:18;;;;;;;56.40;37.90;;;;;;;;;;4998173;28;20037;-78
2022/03/18 03:11:45;;;;;;;69.53;42.00;;;;;;;;;;4991655;28;20569;-78
2022/03/18 03:14:12;;;;;;;51.83;37.05;;;;;;;;;;5000924;28;20031;-77
2022/03/18 03:16:38;;;;;;;50.20;36.75;;;;;;;;;;4998962;28;20030;-78
2022/03/18 03:19:05;;;;;;;56.33;36.35;;;;;;;;;;4999094;28;20113;-77
2022/03/18 03:21:31;;;;;;;73.88;43.25;;;;;;;;;;4997437;28;20120;-78
2022/03/18 03:23:57;;;;;;;68.95;41.83;;;;;;;;;;5001731;28;20025;-77
2022/03/18 03:26:24;;;;;;;63.17;40.22;;;;;;;;;;4978600;28;20034;-78
2022/03/18 03:28:50;;;;;;;57.20;38.33;;;;;;;;;;4997694;28;20661;-77
2022/03/18 03:31:16;;;;;;;62.03;37.92;;;;;;;;;;4998205;28;20113;-77
2022/03/18 03:33:44;;;;;;;55.72;37.67;;;;;;;;;;4991792;28;20064;-77
2022/03/18 03:36:10;;;;;;;55.60;36.65;;;;;;;;;;4994413;28;20116;-76
2022/03/18 03:38:36;;;;;;;66.15;38.60;;;;;;;;;;4999552;28;20160;-77
2022/03/18 03:41:04;;;;;;;65.20;40.13;;;;;;;;;;5002410;28;20456;-77
2022/03/18 03:43:33;;;;;;;64.43;40.55;;;;;;;;;;5003821;28;20117;-77
2022/03/18 03:45:59;;;;;;;56.17;36.63;;;;;;;;;;5003984;28;20276;-76
2022/03/18 03:48:26;;;;;;;66.30;41.33;;;;;;;;;;5005785;28;20153;-77
2022/03/18 03:50:52;;;;;;;55.78;38.13;;;;;;;;;;5000113;28;20033;-77
2022/03/18 03:53:18;;;;;;;58.92;36.70;;;;;;;;;;5000556;28;20029;-76
2022/03/18 03:55:45;;;;;;;55.50;37.65;;;;;;;;;;5001393;28;20034;-76
2022/03/18 03:58:11;;;;;;;47.10;33.60;;;;;;;;;;4999720;28;20106;-77
2022/03/18 04:00:38;;;;;;;48.65;31.92;;;;;;;;;;4993732;28;20038;-76
2022/03/18 04:03:05;;;;;;;52.45;32.08;;;;;;;;;;5003279;28;20053;-78
2022/03/18 04:05:32;;;;;;;53.60;34.92;;;;;;;;;;5018748;28;20518;-77
2022/03/18 04:07:59;;;;;;;52.78;36.78;;;;;;;;;;5019780;28;20030;-77
2022/03/18 04:10:26;;;;;;;56.38;37.55;;;;;;;;;;5024913;28;20053;-77
2022/03/18 04:12:55;;;;;;;59.03;39.25;;;;;;;;;;5025967;28;20044;-78
2022/03/18 04:15:23;;;;;;;72.28;48.63;;;;;;;;;;5030404;28;20061;-77
2022/03/18 04:17:50;;;;;;;61.80;40.72;;;;;;;;;;5026286;28;20033;-77
2022/03/18 04:20:18;;;;;;;57.40;38.63;;;;;;;;;;5021242;28;20406;-76
2022/03/18 04:22:44;;;;;;;57.33;41.05;;;;;;;;;;5024036;28;20043;-77
2022/03/18 04:25:11;;;;;;;58.25;41.20;;;;;;;;;;5017638;28;20472;-76
2022/03/18 04:27:38;;;;;;;56.40;39.38;;;;;;;;;;5021347;28;20030;-77
2022/03/18 04:30:06;;;;;;;48.47;35.95;;;;;;;;;;5020685;28;20035;-77
2022/03/18 04:32:32;;;;;;;59.03;45.17;;;;;;;;;;5020468;28;20418;-76
2022/03/18 04:34:59;;;;;;;56.95;37.28;;;;;;;;;;5025889;28;20416;-76
2022/03/18 04:37:25;;;;;;;50.55;37.17;;;;;;;;;;5023101;28;20553;-77
2022/03/18 04:39:52;;;;;;;38.50;29.30;;;;;;;;;;5024467;28;20033;-77
2022/03/18 04:42:18;;;;;;;41.70;30.48;;;;;;;;;;5027026;28;20104;-77
2022/03/18 04:44:45;;;;;;;48.47;35.95;;;;;;;;;;5030969;28;20117;-78
2022/03/18 04:47:11;;;;;;;57.08;39.70;;;;;;;;;;5030116;28;20018;-77
2022/03/18 04:49:38;;;;;;;56.83;39.63;;;;;;;;;;5022521;28;20108;-76
2022/03/18 04:52:08;;;;;;;50.65;35.13;;;;;;;;;;5027264;28;20475;-76
2022/03/18 04:54:34;;;;;;;56.20;42.95;;;;;;;;;;5022617;28;20018;-76
2022/03/18 04:57:16;;;;;;;56.30;38.55;;;;;;;;;;5022996;28;20033;-76
2022/03/18 04:59:45;;;;;;;54.75;38.80;;;;;;;;;;5028360;28;20479;-77
2022/03/18 05:02:11;;;;;;;58.08;41.78;;;;;;;;;;5021942;28;20034;-76
2022/03/18 05:04:38;;;;;;;76.72;52.65;;;;;;;;;;5025548;28;20037;-77
2022/03/18 05:07:05;;;;;;;70.93;45.10;;;;;;;;;;5020644;28;20077;-77
2022/03/18 05:09:31;;;;;;;58.05;40.72;;;;;;;;;;5023451;28;20471;-78
2022/03/18 05:11:58;;;;;;;81.30;54.20;;;;;;;;;;5025824;28;20061;-78
2022/03/18 05:14:24;;;;;;;75.13;51.03;;;;;;;;;;5012869;28;20673;-78
2022/03/18 05:16:52;;;;;;;131.05;91.57;;;;;;;;;;5023344;28;20041;-79
2022/03/18 05:19:18;;;;;;;153.30;98.80;;;;;;;;;;5019404;28;20132;-80
2022/03/18 05:21:55;;;;;;;124.93;82.55;;;;;;;;;;5023939;28;20395;-81
2022/03/18 05:24:21;;;;;;;115.40;77.85;;;;;;;;;;5030210;28;20039;-80
2022/03/18 05:26:47;;;;;;;134.35;87.60;;;;;;;;;;5020291;28;20025;-79
2022/03/18 05:29:14;;;;;;;196.05;120.13;;;;;;;;;;5020874;28;20063;-79
2022/03/18 05:31:42;;;;;;;175.73;111.32;;;;;;;;;;5019469;28;20088;-79
2022/03/18 05:34:08;;;;;;;250.73;159.43;;;;;;;;;;5012019;28;20458;-79
2022/03/18 05:36:34;;;;;;;160.82;101.20;;;;;;;;;;5014126;28;20439;-79
2022/03/18 05:39:00;;;;;;;107.57;70.03;;;;;;;;;;5015545;28;20245;-79
2022/03/18 05:41:27;;;;;;;71.85;51.08;;;;;;;;;;5011991;28;20038;-80
2022/03/18 05:43:53;;;;;;;73.68;54.72;;;;;;;;;;5014042;28;20033;-80
2022/03/18 05:46:19;;;;;;;53.00;38.95;;;;;;;;;;5023397;28;20026;-81
2022/03/18 05:48:46;;;;;;;43.83;34.85;;;;;;;;;;5019220;28;20053;-81
2022/03/18 05:51:12;;;;;;;47.17;38.80;;;;;;;;;;5010784;28;20064;-80
2022/03/18 05:53:38;;;;;;;47.67;38.95;;;;;;;;;;5012426;28;20038;-81
2022/03/18 05:58:50;;;;;;;121.85;87.57;;;;;;;;;;5014710;28;20153;-78
2022/03/18 06:01:20;;;;;;;87.05;63.85;;;;;;;;;;5015511;28;20327;-77
2022/03/18 06:03:48;;;;;;;240.32;166.10;;;;;;;;;;5014509;28;20049;-77
2022/03/18 06:06:15;;;;;;;172.85;118.88;;;;;;;;;;5002768;28;20049;-76
2022/03/18 06:14:11;;;;;;;48.78;36.67;;;;;;;;;;5019280;28;20379;-78
2022/03/18 06:16:37;;;;;;;50.58;38.17;;;;;;;;;;5017842;28;20661;-77
2022/03/18 06:19:04;;;;;;;119.90;75.80;;;;;;;;;;5018150;28;20348;-77
2022/03/18 06:21:30;;;;;;;47.53;35.60;;;;;;;;;;5013846;28;20128;-77
2022/03/18 06:23:57;;;;;;;62.70;45.10;;;;;;;;;;5011558;28;20032;-77
2022/03/18 06:26:23;;;;;;;61.17;45.10;;;;;;;;;;5017843;28;20391;-77
2022/03/18 06:28:50;;;;;;;53.20;39.28;;;;;;;;;;5021703;28;20459;-77
2022/03/18 06:31:16;;;;;;;96.00;69.25;;;;;;;;;;5023042;28;20044;-77
2022/03/18 06:33:46;;;;;;;139.82;101.22;;;;;;;;;;5023986;28;20064;-76
2022/03/18 06:36:13;;;;;;;44.50;34.70;;;;;;;;;;5017568;28;20037;-76
2022/03/18 06:38:39;;;;;;;47.00;36.13;;;;;;;;;;5019166;28;20029;-77
2022/03/18 06:41:06;;;;;;;36.78;28.20;;;;;;;;;;5023000;28;20041;-76
2022/03/18 06:43:32;;;;;;;55.47;46.08;;;;;;;;;;5021176;28;20037;-77
2022/03/18 06:45:58;;;;;;;45.65;38.90;;;;;;;;;;5021557;28;20107;-77
2022/03/18 06:48:25;;;;;;;42.22;33.92;;;;;;;;;;5022851;28;20113;-79
2022/03/18 06:50:51;;;;;;;38.85;29.73;;;;;;;;;;5003366;28;20133;-77
2022/03/18 06:53:18;;;;;;;82.97;59.97;;;;;;;;;;5016507;28;20029;-78
2022/03/18 06:55:44;;;;;;;37.53;28.88;;;;;;;;;;5018162;28;20033;-75
2022/03/18 06:58:10;;;;;;;44.10;34.85;;;;;;;;;;5016927;28;20037;-77
2022/03/18 07:00:38;;;;;;;34.45;27.48;;;;;;;;;;5020875;28;20041;-77
2022/03/18 07:03:05;;;;;;;25.40;21.33;;;;;;;;;;5021858;28;20072;-77
2022/03/18 07:05:32;;;;;;;30.92;25.50;;;;;;;;;;5019796;28;20029;-77
2022/03/18 07:07:59;;;;;;;31.33;23.42;;;;;;;;;;5016666;28;20022;-77
2022/03/18 07:10:25;;;;;;;30.75;23.85;;;;;;;;;;5016325;28;20053;-79
2022/03/18 07:12:57;;;;;;;27.15;21.40;;;;;;;;;;5023654;28;20034;-78
2022/03/18 07:15:44;;;;;;;26.88;22.70;;;;;;;;;;5024825;28;20112;-79
2022/03/18 07:18:10;;;;;;;23.20;19.20;;;;;;;;;;5024456;28;20479;-77
2022/03/18 07:20:37;;;;;;;24.48;19.38;;;;;;;;;;5017118;28;20060;-77
2022/03/18 07:23:04;;;;;;;21.85;17.45;;;;;;;;;;5023699;28;20486;-78
2022/03/18 07:25:30;;;;;;;23.80;17.10;;;;;;;;;;5024718;28;20033;-76
2022/03/18 07:27:57;;;;;;;21.58;17.10;;;;;;;;;;5026846;28;20388;-77
2022/03/18 07:30:23;;;;;;;21.70;15.43;;;;;;;;;;5025771;28;20112;-79
2022/03/18 07:32:50;;;;;;;23.95;16.00;;;;;;;;;;5023685;28;20531;-77
2022/03/18 07:35:16;;;;;;;23.45;17.50;;;;;;;;;;5026031;28;20112;-78
2022/03/18 07:37:43;;;;;;;21.95;18.00;;;;;;;;;;5023728;28;20022;-77
2022/03/18 07:40:11;;;;;;;25.00;19.08;;;;;;;;;;5026675;28;20033;-77
2022/03/18 07:42:41;;;;;;;24.55;18.35;;;;;;;;;;5017728;28;20033;-78
2022/03/18 07:45:09;;;;;;;28.60;19.85;;;;;;;;;;5019959;28;20030;-78
2022/03/18 07:47:35;;;;;;;28.02;20.30;;;;;;;;;;5024198;28;20026;-77
2022/03/18 07:50:01;;;;;;;33.30;21.85;;;;;;;;;;5030516;28;20044;-78
2022/03/18 07:52:28;;;;;;;24.65;19.40;;;;;;;;;;5029815;28;20062;-77
2022/03/18 07:54:54;;;;;;;28.75;21.00;;;;;;;;;;5022499;28;20026;-77
2022/03/18 07:57:20;;;;;;;25.42;20.70;;;;;;;;;;5023651;28;20483;-78
2022/03/18 07:59:47;;;;;;;26.92;19.05;;;;;;;;;;5026918;28;20030;-77
2022/03/18 08:02:13;;;;;;;26.83;20.52;;;;;;;;;;5023308;28;20029;-78
2022/03/18 08:04:39;;;;;;;25.27;20.58;;;;;;;;;;5021736;28;20038;-77
2022/03/18 08:07:06;;;;;;;26.80;20.42;;;;;;;;;;5017975;28;20112;-78
2022/03/18 08:09:32;;;;;;;24.92;20.48;;;;;;;;;;5022924;28;20028;-77
2022/03/18 08:11:58;;;;;;;28.63;23.13;;;;;;;;;;5021594;28;20025;-79
2022/03/18 08:14:25;;;;;;;22.30;17.50;;;;;;;;;;5023175;28;20040;-77
2022/03/18 08:16:52;;;;;;;18.73;16.23;;;;;;;;;;5017788;28;20033;-77
2022/03/18 08:19:18;;;;;;;19.88;15.85;;;;;;;;;;5021926;28;20467;-75
2022/03/18 08:21:44;;;;;;;20.58;16.23;;;;;;;;;;5023590;28;20037;-77
2022/03/18 08:24:11;;;;;;;18.52;16.27;;;;;;;;;;5024276;28;20112;-77
2022/03/18 08:26:38;;;;;;;20.67;16.13;;;;;;;;;;5026196;28;20033;-78
2022/03/18 08:29:05;;;;;;;19.02;15.48;;;;;;;;;;5021537;28;20029;-77
2022/03/18 08:31:31;;;;;;;17.65;14.55;;;;;;;;;;5024806;28;20026;-78
2022/03/18 08:33:58;;;;;;;16.33;13.07;;;;;;;;;;5019498;28;20033;-76
2022/03/18 08:36:24;;;;;;;15.82;12.60;;;;;;;;;;5025774;28;20654;-77
2022/03/18 08:38:50;;;;;;;16.80;13.30;;;;;;;;;;5023936;28;20071;-77
2022/03/18 08:41:17;;;;;;;17.80;14.27;;;;;;;;;;5021129;28;20030;-78
2022/03/18 08:43:43;;;;;;;19.00;14.68;;;;;;;;;;5023122;28;20296;-78
2022/03/18 08:46:09;;;;;;;13.63;10.32;;;;;;;;;;5020386;28;20102;-78
2022/03/18 08:48:35;;;;;;;15.13;10.55;;;;;;;;;;5024594;28;20192;-77
2022/03/18 08:51:02;;;;;;;13.82;10.20;;;;;;;;;;5025545;28;20028;-78
2022/03/18 08:53:28;;;;;;;13.85;11.05;;;;;;;;;;5027842;28;20022;-77
2022/03/18 08:55:56;;;;;;;14.57;12.13;;;;;;;;;;5021641;28;20036;-78
2022/03/18 08:58:22;;;;;;;15.85;12.63;;;;;;;;;;5024536;28;20038;-78
2022/03/18 09:00:49;;;;;;;17.35;12.43;;;;;;;;;;5025608;28;20053;-78
2022/03/18 09:03:15;;;;;;;14.70;12.32;;;;;;;;;;5021682;28;20100;-77
2022/03/18 09:05:44;;;;;;;13.35;10.00;;;;;;;;;;5024258;28;20033;-78
2022/03/18 09:08:11;;;;;;;12.45;9.88;;;;;;;;;;5020844;28;20025;-77
2022/03/18 09:10:37;;;;;;;12.52;10.52;;;;;;;;;;5019801;28;20601;-77
2022/03/18 09:13:03;;;;;;;13.82;9.68;;;;;;;;;;5023160;28;20022;-78
2022/03/18 09:15:30;;;;;;;11.90;8.32;;;;;;;;;;5022481;28;20616;-77
2022/03/18 09:17:57;;;;;;;11.65;9.45;;;;;;;;;;5021844;28;20478;-78
2022/03/18 09:20:23;;;;;;;9.18;7.32;;;;;;;;;;5022953;28;20067;-78
2022/03/18 09:22:50;;;;;;;7.13;5.80;;;;;;;;;;5022605;28;20037;-77
2022/03/18 09:25:20;;;;;;;6.07;4.97;;;;;;;;;;5021906;28;20034;-77
2022/03/18 09:27:46;;;;;;;4.65;3.30;;;;;;;;;;5020463;28;20071;-78
2022/03/18 09:30:14;;;;;;;3.92;2.72;;;;;;;;;;5023838;28;20049;-78
2022/03/18 09:32:42;;;;;;;3.88;2.33;;;;;;;;;;5017427;28;20026;-77
2022/03/18 09:35:09;;;;;;;3.92;2.97;;;;;;;;;;5019516;28;20036;-79
2022/03/18 09:37:35;;;;;;;4.75;3.50;;;;;;;;;;5018924;28;20104;-77
2022/03/18 09:40:04;;;;;;;6.85;3.83;;;;;;;;;;5025537;28;20376;-77
2022/03/18 09:42:32;;;;;;;5.93;4.40;;;;;;;;;;5022762;28;20033;-76
2022/03/18 09:44:59;;;;;;;7.35;5.07;;;;;;;;;;5018052;28;20032;-77
2022/03/18 09:47:26;;;;;;;8.45;5.70;;;;;;;;;;5014656;28;20756;-78
2022/03/18 09:49:52;;;;;;;8.90;6.63;;;;;;;;;;5020657;28;20382;-75
2022/03/18 09:52:19;;;;;;;12.30;8.80;;;;;;;;;;5016878;28;20037;-78
2022/03/18 09:54:48;;;;;;;12.68;10.15;;;;;;;;;;5016063;28;20357;-76
2022/03/18 09:57:16;;;;;;;17.45;11.95;;;;;;;;;;5016197;28;20379;-79
2022/03/18 09:59:43;;;;;;;12.82;10.15;;;;;;;;;;5024883;28;20021;-78
2022/03/18 10:02:25;;;;;;;13.07;9.80;;;;;;;;;;5025580;28;20125;-78
2022/03/18 10:04:58;;;;;;;13.82;10.35;;;;;;;;;;5019693;28;20050;-78
2022/03/18 10:07:25;;;;;;;12.32;9.95;;;;;;;;;;5023090;28;20561;-77
2022/03/18 10:10:02;;;;;;;14.55;11.20;;;;;;;;;;5024888;28;20033;-77
2022/03/18 10:13:00;;;;;;;10.20;7.93;;;;;;;;;;5025068;28;20017;-77
2022/03/18 10:15:55;;;;;;;10.73;8.00;;;;;;;;;;5015168;28;20045;-77
2022/03/18 10:18:53;;;;;;;12.05;8.73;;;;;;;;;;5021476;28;20037;-77
2022/03/18 10:24:40;;;;;;;11.38;7.00;;;;;;;;;;5020827;28;20037;-77
2022/03/18 10:27:13;;;;;;;10.85;7.30;;;;;;;;;;5021150;28;20266;-77
2022/03/18 10:29:43;;;;;;;14.88;9.00;;;;;;;;;;5022568;28;20034;-77
2022/03/18 10:32:14;;;;;;;15.15;10.10;;;;;;;;;;5022440;28;20025;-77
2022/03/18 10:37:49;;;;;;;16.13;11.20;;;;;;;;;;5023491;28;20049;-77
2022/03/18 10:40:17;;;;;;;16.13;11.32;;;;;;;;;;5017877;28;20026;-77
2022/03/18 10:42:58;;;;;;;14.07;10.93;;;;;;;;;;5018884;28;20433;-77
2022/03/18 10:45:24;;;;;;;15.43;13.35;;;;;;;;;;5018895;28;20033;-77
2022/03/18 10:47:51;;;;;;;16.58;12.10;;;;;;;;;;5019104;28;20490;-77
2022/03/18 10:50:29;;;;;;;13.68;11.35;;;;;;;;;;5020499;28;20149;-78
2022/03/18 10:52:58;;;;;;;17.30;13.02;;;;;;;;;;5016447;28;20161;-79
2022/03/18 10:55:34;;;;;;;18.95;13.98;;;;;;;;;;5018965;28;20033;-79
2022/03/18 10:58:00;;;;;;;17.88;14.40;;;;;;;;;;5018322;28;20033;-78
2022/03/18 11:00:29;;;;;;;22.17;16.13;;;;;;;;;;5017354;28;20040;-78
2022/03/18 11:02:59;;;;;;;23.65;18.02;;;;;;;;;;5016151;28;20036;-78
2022/03/18 11:05:32;;;;;;;27.17;19.45;;;;;;;;;;5018881;28;20049;-77
2022/03/18 11:08:00;;;;;;;29.50;22.85;;;;;;;;;;5019538;28;20026;-77
2022/03/18 11:13:15;;;;;;;28.33;21.95;;;;;;;;;;5018634;28;20076;-78
2022/03/18 11:15:45;;;;;;;34.97;26.10;;;;;;;;;;5015760;28;20075;-77
2022/03/18 11:18:13;;;;;;;36.45;26.50;;;;;;;;;;5019733;28;20068;-78
2022/03/18 11:20:44;;;;;;;37.47;27.10;;;;;;;;;;5018002;28;20044;-77
2022/03/18 11:23:15;;;;;;;38.03;28.45;;;;;;;;;;5015447;28;20384;-77
2022/03/18 11:25:41;;;;;;;39.13;30.17;;;;;;;;;;5017252;28;20771;-77
2022/03/18 11:28:09;;;;;;;38.47;29.88;;;;;;;;;;5015964;28;20084;-78
2022/03/18 11:30:35;;;;;;;37.30;27.58;;;;;;;;;;5016971;28;20017;-79
2022/03/18 11:33:10;;;;;;;34.20;26.50;;;;;;;;;;5020467;28;20060;-77
2022/03/18 11:35:52;;;;;;;39.67;29.00;;;;;;;;;;5015067;28;20029;-78
2022/03/18 11:38:19;;;;;;;41.50;27.98;;;;;;;;;;5018940;28;20488;-77
2022/03/18 11:41:06;;;;;;;34.03;25.83;;;;;;;;;;5018414;28;20492;-77
2022/03/18 11:43:39;;;;;;;35.60;26.58;;;;;;;;;;5017109;28;20340;-76
2022/03/18 11:46:15;;;;;;;34.13;27.05;;;;;;;;;;5010986;28;20033;-77
2022/03/18 11:48:52;;;;;;;38.63;28.17;;;;;;;;;;5012689;28;20116;-78
2022/03/18 11:51:40;;;;;;;37.65;27.60;;;;;;;;;;5013428;28;20025;-77
2022/03/18 11:54:07;;;;;;;34.72;25.70;;;;;;;;;;5012663;28;20111;-78
2022/03/18 11:56:40;;;;;;;33.97;23.88;;;;;;;;;;5010265;28;20034;-78
2022/03/18 11:59:28;;;;;;;37.72;26.48;;;;;;;;;;5019684;28;20107;-78
2022/03/18 12:01:55;;;;;;;35.63;26.15;;;;;;;;;;5024459;28;20037;-78
2022/03/18 12:04:33;;;;;;;36.58;26.33;;;;;;;;;;5025205;28;20088;-76
2022/03/18 12:07:19;;;;;;;39.42;28.90;;;;;;;;;;5023223;28;20045;-76
2022/03/18 12:09:52;;;;;;;39.00;29.02;;;;;;;;;;5024356;28;20032;-77
2022/03/18 12:12:20;;;;;;;40.15;28.77;;;;;;;;;;5028783;28;20037;-77
2022/03/18 12:14:46;;;;;;;38.92;30.70;;;;;;;;;;5025007;28;20040;-77
2022/03/18 12:17:13;;;;;;;35.25;26.17;;;;;;;;;;5025204;28;20468;-77
2022/03/18 12:19:39;;;;;;;34.20;26.42;;;;;;;;;;5022813;28;20037;-77
2022/03/18 12:22:06;;;;;;;27.45;20.58;;;;;;;;;;5022445;28;20041;-77
2022/03/18 12:24:32;;;;;;;24.52;18.80;;;;;;;;;;5028272;28;20112;-76
2022/03/18 12:27:02;;;;;;;25.75;18.90;;;;;;;;;;5029111;28;20029;-78
2022/03/18 12:29:29;;;;;;;21.23;16.83;;;;;;;;;;5024847;28;20035;-78
2022/03/18 12:32:03;;;;;;;23.08;15.98;;;;;;;;;;5029943;28;20384;-77
2022/03/18 12:34:29;;;;;;;23.42;16.52;;;;;;;;;;5023042;28;20380;-78
2022/03/18 12:36:56;;;;;;;20.75;15.23;;;;;;;;;;5024024;28;20071;-77
2022/03/18 12:39:26;;;;;;;14.88;11.32;;;;;;;;;;5026243;28;20033;-77
2022/03/18 12:42:05;;;;;;;14.07;10.90;;;;;;;;;;5028418;28;20076;-77
2022/03/18 12:44:34;;;;;;;13.45;10.13;;;;;;;;;;5030525;28;20033;-76
2022/03/18 12:47:00;;;;;;;12.05;9.70;;;;;;;;;;5020018;28;20408;-76
2022/03/18 12:49:35;;;;;;;15.90;11.60;;;;;;;;;;5023906;28;20034;-78
2022/03/18 12:52:02;;;;;;;14.35;10.55;;;;;;;;;;5028473;28;20030;-77
2022/03/18 12:54:29;;;;;;;15.45;11.35;;;;;;;;;;5025916;28;20314;-76
2022/03/18 12:56:56;;;;;;;19.02;13.40;;;;;;;;;;5024267;28;20022;-78
2022/03/18 12:59:22;;;;;;;19.67;14.30;;;;;;;;;;5023909;28;20479;-77
2022/03/18 13:01:55;;;;;;;20.33;16.65;;;;;;;;;;5025145;28;20037;-75
2022/03/18 13:04:22;;;;;;;23.02;16.75;;;;;;;;;;5027956;28;20180;-77
2022/03/18 13:06:58;;;;;;;20.73;16.50;;;;;;;;;;5031332;28;20037;-77
2022/03/18 13:09:24;;;;;;;25.00;17.52;;;;;;;;;;5023788;28;20045;-76
2022/03/18 13:11:51;;;;;;;20.95;17.35;;;;;;;;;;5029243;28;20048;-77
2022/03/18 13:14:31;;;;;;;22.00;18.08;;;;;;;;;;5025389;28;20053;-77
2022/03/18 13:16:58;;;;;;;24.30;19.63;;;;;;;;;;5024118;28;20118;-76
2022/03/18 13:19:37;;;;;;;27.98;21.42;;;;;;;;;;5020868;28;20037;-77
2022/03/18 13:22:03;;;;;;;33.13;25.27;;;;;;;;;;5026462;28;20030;-78
2022/03/18 13:24:30;;;;;;;35.00;26.83;;;;;;;;;;5022501;28;20037;-76
2022/03/18 13:26:56;;;;;;;39.63;31.42;;;;;;;;;;5026115;28;20537;-76
2022/03/18 13:32:50;;;;;;;46.50;34.88;;;;;;;;;;5023952;28;20125;-77
2022/03/18 13:34:56;;;;;;;48.55;36.15;;;;;;;;;;5023921;28;20036;-78
2022/03/18 13:37:23;;;;;;;50.95;37.35;;;;;;;;;;5024899;28;20033;-77
2022/03/18 13:39:51;;;;;;;53.85;38.33;;;;;;;;;;5023251;28;20094;-77
2022/03/18 13:42:27;;;;;;;57.55;41.55;;;;;;;;;;5028617;28;20415;-76
2022/03/18 13:44:54;;;;;;;60.88;44.88;;;;;;;;;;5020726;28;20408;-77
2022/03/18 13:47:20;;;;;;;58.95;45.10;;;;;;;;;;5023929;28;20037;-77
2022/03/18 13:49:53;;;;;;;63.72;47.75;;;;;;;;;;5028901;28;20084;-77
2022/03/18 13:52:30;;;;;;;69.40;49.90;;;;;;;;;;5023716;28;20037;-77
2022/03/18 13:54:56;;;;;;;77.57;56.83;;;;;;;;;;5030795;28;20026;-76
2022/03/18 13:57:23;;;;;;;77.75;54.15;;;;;;;;;;5030662;28;20097;-76
2022/03/18 13:59:54;;;;;;;74.75;55.28;;;;;;;;;;5028492;28;20021;-76
2022/03/18 14:02:28;;;;;;;77.45;56.13;;;;;;;;;;5030557;28;20411;-75
2022/03/18 14:04:55;;;;;;;75.43;55.90;;;;;;;;;;5030733;28;20049;-75
2022/03/18 14:07:24;;;;;;;85.18;60.00;;;;;;;;;;5030165;28;20075;-76
2022/03/18 14:10:04;;;;;;;80.00;57.97;;;;;;;;;;5019414;28;20059;-76
2022/03/18 14:12:30;;;;;;;87.38;63.95;;;;;;;;;;5030516;28;20036;-76
2022/03/18 14:15:11;;;;;;;88.88;62.45;;;;;;;;;;5029050;28;20026;-76
2022/03/18 14:17:55;;;;;;;84.38;59.90;;;;;;;;;;5030413;28;20100;-76
2022/03/18 14:20:22;;;;;;;64.05;45.75;;;;;;;;;;5024100;28;20030;-76
2022/03/18 14:22:52;;;;;;;53.88;41.28;;;;;;;;;;5031034;28;20036;-76
2022/03/18 14:25:18;;;;;;;55.92;42.45;;;;;;;;;;5029693;28;20033;-75
2022/03/18 14:27:45;;;;;;;58.28;44.72;;;;;;;;;;5029949;28;20055;-77
2022/03/18 14:30:13;;;;;;;56.10;43.92;;;;;;;;;;5029622;28;20059;-76
2022/03/18 14:32:41;;;;;;;53.60;39.88;;;;;;;;;;5030436;28;20038;-76
2022/03/18 14:35:11;;;;;;;68.75;49.53;;;;;;;;;;5025672;28;20375;-77
2022/03/18 14:37:38;;;;;;;103.22;68.97;;;;;;;;;;5027116;28;20064;-77
2022/03/18 14:40:06;;;;;;;120.30;72.32;;;;;;;;;;5032989;28;20033;-76
2022/03/18 14:42:32;;;;;;;108.38;70.93;;;;;;;;;;5029090;28;20033;-76
2022/03/18 14:44:59;;;;;;;100.25;64.32;;;;;;;;;;5027815;28;20025;-76
2022/03/18 14:47:26;;;;;;;101.30;68.15;;;;;;;;;;5031320;28;20030;-76
2022/03/18 14:49:52;;;;;;;107.68;68.00;;;;;;;;;;5031192;28;20037;-77
2022/03/18 14:52:19;;;;;;;96.03;61.95;;;;;;;;;;5025203;28;20037;-77
2022/03/18 14:57:31;;;;;;;97.88;65.53;;;;;;;;;;5029218;28;20045;-77
2022/03/18 14:59:57;;;;;;;97.18;61.50;;;;;;;;;;5023440;28;20029;-74